Time;durP1;ratioP1;P1;durP2;ratioP2;P2;SDS_P1;SDS_P2;PMS_P1;PMS_P2;Temp;Humidity;BMP_temperature;BMP_pressure;BME280_temperature;BME280_humidity;BME280_pressure;Samples;Min_cycle;Max_cycle;Signal;HPM_P1;HPM_P2
2022/06/02 00:01:04;;;;;;;2.07;1.97;;;19.80;54.40;21.10;101085.00;;;;4990450;28;20224;-47
2022/06/02 00:04:04;;;;;;;2.20;2.00;;;19.80;54.40;21.10;101079.00;;;;4991063;28;20184;-47
2022/06/02 00:06:43;;;;;;;2.33;2.13;;;19.80;54.40;21.00;101080.00;;;;4975041;28;20161;-47
2022/06/02 00:09:35;;;;;;;1.90;1.80;;;19.70;54.40;21.00;101095.00;;;;4974451;28;20169;-46
2022/06/02 00:12:47;;;;;;;2.00;1.90;;;19.70;54.40;21.00;101090.00;;;;4990380;28;20207;-47
2022/06/02 00:15:35;;;;;;;2.10;2.00;;;19.70;54.40;20.90;101087.00;;;;4990140;28;20172;-47
2022/06/02 00:18:25;;;;;;;2.20;2.00;;;19.60;54.40;20.90;101103.00;;;;4975482;28;20204;-48
2022/06/02 00:21:04;;;;;;;2.10;2.00;;;19.60;54.40;20.90;101100.00;;;;4989956;28;20216;-47
2022/06/02 00:23:47;;;;;;;2.20;2.00;;;19.60;54.40;20.90;101108.00;;;;4990028;28;20168;-46
2022/06/02 00:26:50;;;;;;;2.00;1.90;;;19.60;54.40;20.90;101113.00;;;;4991435;28;20722;-46
2022/06/02 00:29:21;;;;;;;2.30;2.10;;;19.60;54.50;20.80;101095.00;;;;4990916;28;20180;-47
2022/06/02 00:32:13;;;;;;;2.17;2.00;;;19.50;54.40;20.80;101110.00;;;;4990076;28;20204;-47
2022/06/02 00:35:05;;;;;;;2.43;2.20;;;19.50;54.40;20.80;101096.00;;;;4989961;28;20164;-47
2022/06/02 00:38:05;;;;;;;2.30;2.10;;;19.50;54.50;20.80;101100.00;;;;4990915;28;20168;-47
2022/06/02 00:40:32;;;;;;;2.10;2.00;;;19.50;54.50;20.70;101102.00;;;;4990223;28;20208;-48
2022/06/02 00:43:29;;;;;;;2.10;2.00;;;19.40;54.40;20.80;101104.00;;;;4989611;28;20184;-47
2022/06/02 00:46:23;;;;;;;2.43;2.23;;;19.40;54.40;20.70;101100.00;;;;4990874;28;20303;-47
2022/06/02 00:49:19;;;;;;;2.33;2.13;;;19.40;54.50;20.70;101111.00;;;;4990543;28;20266;-47
2022/06/02 00:52:12;;;;;;;2.30;2.10;;;19.40;54.50;20.70;101112.00;;;;4989861;28;20200;-47
2022/06/02 00:58:03;;;;;;;2.10;2.00;;;19.40;54.50;20.60;101111.00;;;;4989868;28;20640;-47
2022/06/02 01:00:50;;;;;;;2.20;2.10;;;19.30;54.40;20.60;101116.00;;;;4988646;28;20688;-47
2022/06/02 01:03:21;;;;;;;2.30;2.00;;;19.30;54.50;20.60;101119.00;;;;4990671;28;20253;-47
2022/06/02 01:06:02;;;;;;;2.23;2.10;;;19.30;54.50;20.60;101123.00;;;;4990935;28;20167;-47
2022/06/02 01:09:12;;;;;;;2.20;2.10;;;19.30;54.40;20.60;101127.00;;;;4990135;28;20535;-47
2022/06/02 01:12:08;;;;;;;2.10;2.00;;;19.30;54.50;20.50;101121.00;;;;4977572;28;20219;-47
2022/06/02 01:14:43;;;;;;;2.33;2.13;;;19.30;54.40;20.50;101128.00;;;;4990649;28;20184;-47
2022/06/02 01:17:31;;;;;;;2.40;2.23;;;19.30;54.40;20.50;101132.00;;;;4990411;28;20664;-47
2022/06/02 01:20:43;;;;;;;2.30;2.10;;;19.20;54.40;20.50;101134.00;;;;4989088;28;20192;-46
2022/06/02 01:23:49;;;;;;;2.10;2.00;;;19.20;54.40;20.50;101132.00;;;;4988961;28;20558;-46
2022/06/02 01:26:51;;;;;;;2.10;2.00;;;19.20;54.40;20.40;101137.00;;;;4977359;28;20270;-46
2022/06/02 01:29:38;;;;;;;2.20;2.10;;;19.20;54.40;20.40;101132.00;;;;4989421;28;20184;-48
2022/06/02 01:32:18;;;;;;;2.00;1.90;;;19.20;54.40;20.40;101127.00;;;;4989750;28;20199;-48
2022/06/02 01:34:58;;;;;;;2.20;2.10;;;19.10;54.40;20.40;101141.00;;;;4988597;28;20271;-48
2022/06/02 01:37:32;;;;;;;2.17;2.07;;;19.10;54.40;20.40;101137.00;;;;4989640;28;20319;-47
2022/06/02 01:40:49;;;;;;;2.40;2.20;;;19.10;54.40;20.40;101138.00;;;;4988686;28;20195;-47
2022/06/02 01:43:40;;;;;;;2.90;2.20;;;19.10;54.40;20.40;101145.00;;;;4983592;28;20228;-47
2022/06/02 01:46:42;;;;;;;2.10;2.00;;;19.10;54.50;20.30;101147.00;;;;4960248;28;20234;-50
2022/06/02 01:49:31;;;;;;;2.57;2.10;;;19.10;54.50;20.30;101124.00;;;;4988775;28;20161;-47
2022/06/02 01:52:17;;;;;;;2.60;2.00;;;19.10;54.50;20.30;101136.00;;;;4973798;28;20204;-47
2022/06/02 01:55:15;;;;;;;2.47;2.20;;;19.10;54.50;20.30;101133.00;;;;4988570;28;20195;-47
2022/06/02 01:58:41;;;;;;;2.10;2.00;;;19.10;54.40;20.30;101136.00;;;;4988560;28;20165;-46
2022/06/02 02:01:34;;;;;;;2.47;2.27;;;19.00;54.40;20.20;101124.00;;;;4977531;28;20227;-49
2022/06/02 02:04:09;;;;;;;2.23;2.13;;;19.00;54.40;20.20;101117.00;;;;4988663;28;20767;-47
2022/06/02 02:06:50;;;;;;;2.40;2.20;;;19.00;54.40;20.20;101129.00;;;;4989906;28;20167;-47
2022/06/02 02:09:45;;;;;;;2.40;2.20;;;19.00;54.40;20.20;101135.00;;;;4989339;28;20239;-48
2022/06/02 02:12:56;;;;;;;2.43;2.23;;;19.00;54.30;20.20;101130.00;;;;4974806;28;20235;-48
2022/06/02 02:15:53;;;;;;;2.40;2.20;;;19.00;54.30;20.20;101132.00;;;;4987865;28;20232;-48
2022/06/02 02:18:51;;;;;;;2.47;2.27;;;18.90;54.20;20.10;101121.00;;;;4974270;28;20574;-48
2022/06/02 02:21:28;;;;;;;2.50;2.30;;;18.90;54.30;20.10;101142.00;;;;4988069;28;20212;-46
2022/06/02 02:24:23;;;;;;;2.60;2.40;;;18.90;54.20;20.10;101140.00;;;;4972496;28;20177;-47
2022/06/02 02:26:58;;;;;;;2.67;2.30;;;18.90;54.20;20.10;101141.00;;;;4988641;28;20196;-46
2022/06/02 02:29:55;;;;;;;3.57;2.20;;;18.90;54.20;20.10;101140.00;;;;4971987;28;20160;-47
2022/06/02 02:32:51;;;;;;;2.50;2.30;;;18.90;54.30;20.10;101156.00;;;;4975235;28;20339;-46
2022/06/02 02:35:45;;;;;;;2.33;2.13;;;18.90;54.30;20.00;101149.00;;;;4988950;28;20178;-47
2022/06/02 02:38:28;;;;;;;2.50;2.10;;;18.80;54.10;20.00;101157.00;;;;4956469;28;20175;-47
2022/06/02 02:41:03;;;;;;;2.13;1.93;;;18.80;54.20;20.00;101155.00;;;;4973620;28;20279;-47
2022/06/02 02:43:57;;;;;;;2.53;2.10;;;18.80;54.10;20.00;101144.00;;;;4972041;28;20182;-48
2022/06/02 02:46:34;;;;;;;4.10;2.10;;;18.80;54.10;20.00;101161.00;;;;4971823;28;20180;-47
2022/06/02 02:49:27;;;;;;;1.97;1.87;;;18.80;54.10;20.00;101156.00;;;;4987413;28;20618;-47
2022/06/02 02:52:31;;;;;;;2.93;2.10;;;18.70;54.00;20.00;101154.00;;;;4987373;28;20203;-47
2022/06/02 02:55:01;;;;;;;2.47;2.00;;;18.70;53.90;19.90;101149.00;;;;4987601;28;20646;-46
2022/06/02 02:58:03;;;;;;;2.27;2.00;;;18.70;53.90;19.90;101154.00;;;;4972538;28;20315;-46
2022/06/02 03:00:39;;;;;;;2.93;2.20;;;18.70;53.90;19.90;101146.00;;;;4990504;28;20548;-47
2022/06/02 03:03:17;;;;;;;2.17;2.07;;;18.70;53.90;19.90;101167.00;;;;4972411;28;20172;-46
2022/06/02 03:06:18;;;;;;;3.00;2.33;;;18.60;53.80;19.80;101163.00;;;;4977040;28;20191;-46
2022/06/02 03:08:48;;;;;;;2.50;2.30;;;18.60;53.80;19.80;101166.00;;;;4989978;28;20340;-48
2022/06/02 03:11:52;;;;;;;2.43;2.23;;;18.60;53.70;19.80;101170.00;;;;4971424;28;20476;-47
2022/06/02 03:15:06;;;;;;;2.40;2.20;;;18.50;53.60;19.80;101169.00;;;;4987097;28;20640;-47
2022/06/02 03:17:44;;;;;;;2.63;2.20;;;18.50;53.60;19.70;101179.00;;;;4971802;28;20228;-46
2022/06/02 03:20:57;;;;;;;2.50;2.30;;;18.50;53.60;19.70;101173.00;;;;4981127;28;20203;-47
2022/06/02 03:23:36;;;;;;;2.43;2.23;;;18.60;53.60;19.70;101179.00;;;;4986446;28;20181;-46
2022/06/02 03:26:38;;;;;;;2.30;2.20;;;18.50;53.50;19.70;101181.00;;;;4986423;28;20163;-48
2022/06/02 03:29:41;;;;;;;2.50;2.30;;;18.50;53.40;19.60;101190.00;;;;4990105;28;20205;-48
2022/06/02 03:32:50;;;;;;;2.50;2.30;;;18.50;53.60;19.60;101192.00;;;;4986240;28;20207;-47
2022/06/02 03:35:31;;;;;;;2.77;2.50;;;18.40;53.50;19.60;101189.00;;;;4985441;28;20187;-46
2022/06/02 03:38:07;;;;;;;2.30;2.10;;;18.50;53.50;19.60;101194.00;;;;4983770;28;20258;-49
2022/06/02 03:41:17;;;;;;;3.27;2.50;;;18.50;53.50;19.60;101200.00;;;;4983436;28;20210;-46
2022/06/02 03:44:18;;;;;;;2.50;2.30;;;18.40;53.50;19.50;101195.00;;;;4987566;28;20653;-47
2022/06/02 03:47:16;;;;;;;2.40;2.20;;;18.40;53.60;19.50;101206.00;;;;4986424;28;20171;-47
2022/06/02 03:50:39;;;;;;;2.50;2.30;;;18.40;53.60;19.50;101194.00;;;;4986787;28;20530;-48
2022/06/02 03:53:37;;;;;;;2.47;2.27;;;18.40;53.70;19.50;101201.00;;;;4973550;28;20188;-47
2022/06/02 03:56:23;;;;;;;3.67;2.30;;;18.30;53.50;19.50;101213.00;;;;4952898;28;20192;-47
2022/06/02 03:59:00;;;;;;;3.83;2.40;;;18.30;53.60;19.40;101215.00;;;;4966873;28;20177;-46
2022/06/02 04:01:34;;;;;;;2.77;2.10;;;18.30;53.50;19.40;101209.00;;;;4967307;28;20373;-48
2022/06/02 04:04:28;;;;;;;2.90;2.20;;;18.30;53.50;19.50;101218.00;;;;4967139;28;20181;-46
2022/06/02 04:07:16;;;;;;;7.37;2.43;;;18.30;53.50;19.40;101220.00;;;;4967854;28;20240;-47
2022/06/02 04:09:57;;;;;;;3.23;2.83;;;18.20;53.50;19.40;101226.00;;;;4967041;28;20728;-49
2022/06/02 04:15:56;;;;;;;3.83;3.40;;;18.20;52.70;19.30;101222.00;;;;4967819;28;20191;-47
2022/06/02 04:22:35;;;;;;;4.13;3.40;;;18.10;51.70;19.20;101238.00;;;;4967288;28;20352;-49
2022/06/02 04:25:29;;;;;;;4.57;3.53;;;18.10;51.90;19.20;101241.00;;;;4967802;28;20212;-49
2022/06/02 04:28:13;;;;;;;4.20;3.90;;;18.10;51.80;19.10;101229.00;;;;4969678;28;20162;-48
2022/06/02 04:31:18;;;;;;;4.90;4.10;;;18.00;51.50;19.10;101242.00;;;;4986073;28;20225;-48
2022/06/02 04:34:26;;;;;;;4.53;4.17;;;18.00;51.50;19.10;101245.00;;;;4986377;28;20380;-49
2022/06/02 04:37:20;;;;;;;3.83;3.50;;;18.00;51.20;19.00;101250.00;;;;4972846;28;20190;-49
2022/06/02 04:40:33;;;;;;;4.10;3.80;;;17.90;50.80;19.00;101260.00;;;;4989590;28;20282;-49
2022/06/02 04:43:21;;;;;;;4.20;3.80;;;17.90;51.30;18.90;101251.00;;;;4996531;28;20725;-52
2022/06/02 04:46:36;;;;;;;3.97;3.67;;;17.90;51.40;18.90;101264.00;;;;4984928;28;20207;-53
2022/06/02 04:49:23;;;;;;;3.70;3.40;;;17.80;51.70;18.80;101269.00;;;;4987271;28;20739;-48
2022/06/02 04:52:22;;;;;;;3.87;3.47;;;17.80;51.90;18.80;101264.00;;;;4989577;28;20791;-48
2022/06/02 04:54:52;;;;;;;4.23;3.80;;;17.80;51.60;18.80;101273.00;;;;4989666;28;20160;-48
2022/06/02 04:57:30;;;;;;;4.30;3.87;;;17.90;51.40;18.80;101277.00;;;;4988617;28;20171;-49
2022/06/02 05:00:26;;;;;;;4.33;3.93;;;17.80;51.30;18.80;101276.00;;;;4989050;28;20752;-50
2022/06/02 05:03:12;;;;;;;4.23;3.83;;;17.80;51.30;18.80;101274.00;;;;4990350;28;20194;-48
2022/06/02 05:05:43;;;;;;;4.03;3.63;;;17.70;51.60;18.70;101277.00;;;;4974620;28;20247;-49
2022/06/02 05:08:51;;;;;;;4.00;3.70;;;17.70;51.80;18.70;101265.00;;;;4989856;28;20650;-50
2022/06/02 05:11:39;;;;;;;4.30;3.90;;;17.70;51.90;18.70;101289.00;;;;4975736;28;20584;-49
2022/06/02 05:14:15;;;;;;;4.07;3.77;;;17.70;51.80;18.70;101283.00;;;;4989228;28;20192;-48
2022/06/02 05:16:52;;;;;;;3.80;3.50;;;17.60;51.80;18.70;101286.00;;;;4988864;28;20621;-48
2022/06/02 05:19:29;;;;;;;4.23;3.93;;;17.60;52.00;18.70;101280.00;;;;4973501;28;20176;-50
2022/06/02 05:22:29;;;;;;;4.37;4.00;;;17.60;52.20;18.60;101288.00;;;;4989920;28;20335;-48
2022/06/02 05:25:34;;;;;;;5.53;5.00;;;17.60;52.10;18.60;101276.00;;;;4990323;28;20633;-49
2022/06/02 05:28:13;;;;;;;5.00;4.47;;;17.60;52.00;18.60;101282.00;;;;4989176;28;20168;-49
2022/06/02 05:30:52;;;;;;;5.90;5.40;;;17.60;52.10;18.60;101287.00;;;;4990011;28;20192;-49
2022/06/02 05:33:44;;;;;;;6.33;5.83;;;17.60;52.50;18.60;101284.00;;;;4989337;28;20180;-49
2022/06/02 05:36:29;;;;;;;6.77;6.07;;;17.60;52.60;18.60;101280.00;;;;4988219;28;20716;-48
2022/06/02 05:39:19;;;;;;;6.47;5.97;;;17.60;52.60;18.50;101284.00;;;;4988859;28;20207;-49
2022/06/02 05:42:03;;;;;;;7.07;6.40;;;17.60;52.60;18.50;101282.00;;;;4989574;28;20222;-50
2022/06/02 05:44:44;;;;;;;6.47;5.87;;;17.60;52.60;18.50;101282.00;;;;4989835;28;20229;-49
2022/06/02 05:47:50;;;;;;;6.87;6.13;;;17.50;52.50;18.50;101277.00;;;;4988819;28;20172;-49
2022/06/02 05:50:57;;;;;;;10.27;6.97;;;17.50;52.80;18.20;101283.00;;;;4988501;28;20165;-49
2022/06/02 05:54:06;;;;;;;7.80;7.00;;;17.40;53.00;18.50;101279.00;;;;4988768;28;20185;-48
2022/06/02 05:56:53;;;;;;;5.27;4.77;;;17.40;53.00;18.40;101272.00;;;;4974989;28;20172;-44
2022/06/02 05:59:31;;;;;;;6.20;4.50;;;17.40;53.40;18.40;101278.00;;;;4987923;28;20251;-44
2022/06/02 06:02:19;;;;;;;5.27;4.27;;;17.40;53.40;18.40;101281.00;;;;4987674;28;20208;-44
2022/06/02 06:04:56;;;;;;;5.70;4.37;;;17.40;53.50;18.50;101275.00;;;;4988467;28;20256;-43
2022/06/02 06:07:51;;;;;;;4.23;3.83;;;17.50;53.70;18.50;101277.00;;;;4989082;28;20740;-43
2022/06/02 06:10:33;;;;;;;3.63;3.33;;;17.50;53.80;18.50;101278.00;;;;4989196;28;20172;-45
2022/06/02 06:13:24;;;;;;;5.90;3.50;;;17.50;54.00;18.50;101283.00;;;;4972375;28;20161;-43
2022/06/02 06:16:30;;;;;;;3.80;3.40;;;17.50;53.80;18.50;101291.00;;;;4973670;28;20165;-45
2022/06/02 06:19:40;;;;;;;4.23;3.23;;;17.50;54.00;18.50;101296.00;;;;4976131;28;20690;-44
2022/06/02 06:22:50;;;;;;;4.10;3.43;;;17.50;54.00;18.50;101306.00;;;;4988475;28;20701;-44
2022/06/02 06:25:42;;;;;;;3.50;3.00;;;17.50;54.10;18.50;101300.00;;;;4989062;28;20176;-44
2022/06/02 06:28:19;;;;;;;3.23;3.00;;;17.50;54.30;18.50;101301.00;;;;4977562;28;20184;-51
2022/06/02 06:30:57;;;;;;;4.83;3.10;;;17.40;54.30;18.50;101309.00;;;;4981696;28;20604;-44
2022/06/02 06:33:35;;;;;;;4.50;2.80;;;17.40;54.60;18.50;101300.00;;;;4969024;28;20169;-43
2022/06/02 06:36:34;;;;;;;6.27;3.03;;;17.50;54.50;18.50;101298.00;;;;4967877;28;20165;-44
2022/06/02 06:39:03;;;;;;;6.40;3.27;;;17.50;54.90;18.50;101298.00;;;;4967722;28;20177;-44
2022/06/02 06:42:14;;;;;;;6.70;3.50;;;17.50;55.20;18.50;101315.00;;;;4968832;28;20211;-44
2022/06/02 06:44:55;;;;;;;5.93;3.10;;;17.50;55.10;18.50;101308.00;;;;4965581;28;20252;-43
2022/06/02 06:47:30;;;;;;;4.17;3.20;;;17.40;55.20;18.50;101316.00;;;;4951765;28;20525;-44
2022/06/02 06:50:04;;;;;;;5.50;3.10;;;17.40;55.10;18.50;101325.00;;;;4849484;28;20183;-44
2022/06/02 06:52:51;;;;;;;4.07;2.97;;;17.40;55.00;18.50;101329.00;;;;4986344;28;20176;-44
2022/06/02 06:55:30;;;;;;;3.53;3.00;;;17.50;55.10;18.50;101333.00;;;;4987478;28;20173;-44
2022/06/02 06:58:26;;;;;;;4.20;3.00;;;17.40;55.30;18.60;101330.00;;;;4970701;28;20243;-43
2022/06/02 07:01:09;;;;;;;4.10;3.30;;;17.40;55.30;18.60;101330.00;;;;4973353;28;20225;-44
2022/06/02 07:04:15;;;;;;;6.43;3.43;;;17.40;55.50;18.60;101323.00;;;;4986204;28;20171;-45
2022/06/02 07:06:53;;;;;;;5.13;3.30;;;17.40;55.80;18.50;101335.00;;;;4985946;28;20195;-45
2022/06/02 07:09:30;;;;;;;7.93;3.23;;;17.40;56.20;18.50;101327.00;;;;4986569;28;20176;-44
2022/06/02 07:15:04;;;;;;;7.40;3.30;;;17.40;57.30;18.50;101335.00;;;;4987379;28;20172;-45
2022/06/02 07:17:58;;;;;;;7.50;3.30;;;17.30;56.60;18.50;101340.00;;;;4972523;28;20184;-44
2022/06/02 07:20:40;;;;;;;5.53;3.43;;;17.40;57.20;18.50;101332.00;;;;4971501;28;20196;-44
2022/06/02 07:23:51;;;;;;;7.87;3.63;;;17.40;57.20;18.50;101341.00;;;;4985819;28;20184;-44
2022/06/02 07:26:54;;;;;;;6.97;3.17;;;17.40;57.10;18.50;101340.00;;;;4986531;28;20192;-44
2022/06/02 07:29:50;;;;;;;5.70;3.33;;;17.40;57.30;18.50;101348.00;;;;4986389;28;20191;-45
2022/06/02 07:33:02;;;;;;;6.47;3.37;;;17.50;57.60;18.50;101335.00;;;;4971791;28;20773;-45
2022/06/02 07:35:47;;;;;;;7.20;3.40;;;17.50;58.10;18.50;101330.00;;;;4987821;28;20187;-44
2022/06/02 07:38:59;;;;;;;5.80;3.10;;;17.40;57.70;18.50;101327.00;;;;4987489;28;20160;-43
2022/06/02 07:41:56;;;;;;;10.37;3.70;;;17.50;58.50;18.50;101332.00;;;;4986059;28;20208;-43
2022/06/02 07:44:53;;;;;;;6.97;3.40;;;17.50;59.30;18.50;101338.00;;;;4972057;28;20212;-44
2022/06/02 07:47:56;;;;;;;5.13;3.30;;;17.50;59.10;18.50;101348.00;;;;4986854;28;20179;-43
2022/06/02 07:50:31;;;;;;;5.70;3.53;;;17.50;59.60;18.50;101330.00;;;;4921560;28;20695;-44
2022/06/02 07:53:13;;;;;;;6.47;3.50;;;17.50;60.00;18.60;101341.00;;;;4987216;28;20172;-44
2022/06/02 07:55:59;;;;;;;5.73;3.43;;;17.50;60.30;18.60;101342.00;;;;4986438;28;20241;-44
2022/06/02 07:59:08;;;;;;;4.73;3.10;;;17.50;61.50;18.60;101343.00;;;;4972039;28;20248;-43
2022/06/02 08:02:16;;;;;;;7.17;3.30;;;17.50;61.70;18.60;101348.00;;;;4987623;28;20551;-44
2022/06/02 08:05:11;;;;;;;7.00;3.20;;;17.50;61.70;18.60;101347.00;;;;4986571;28;20178;-44
2022/06/02 08:07:59;;;;;;;7.43;3.40;;;17.50;61.90;18.60;101351.00;;;;4968420;28;20180;-44
2022/06/02 08:10:52;;;;;;;3.00;2.70;;;17.50;62.00;18.60;101358.00;;;;4989738;28;20218;-44
2022/06/02 08:13:38;;;;;;;4.47;3.40;;;17.50;61.80;18.60;101349.00;;;;4991395;28;20776;-43
2022/06/02 08:16:15;;;;;;;5.73;3.37;;;17.50;61.90;18.60;101350.00;;;;4977354;28;20192;-44
2022/06/02 08:19:09;;;;;;;4.90;3.00;;;17.50;61.80;18.60;101343.00;;;;4975557;28;20331;-44
2022/06/02 08:21:51;;;;;;;3.67;2.93;;;17.50;61.90;18.60;101340.00;;;;4991985;28;20219;-44
2022/06/02 08:24:34;;;;;;;5.50;3.20;;;17.50;61.90;18.60;101339.00;;;;4971210;28;20180;-43
2022/06/02 08:27:40;;;;;;;4.60;3.10;;;17.60;62.30;18.60;101338.00;;;;4973278;28;20207;-43
2022/06/02 08:30:10;;;;;;;6.43;3.03;;;17.60;62.20;18.60;101340.00;;;;4983312;28;20180;-43
2022/06/02 08:32:41;;;;;;;8.37;3.33;;;17.60;61.90;18.60;101350.00;;;;5006590;28;20176;-43
2022/06/02 08:35:52;;;;;;;8.53;3.07;;;17.60;61.60;18.70;101343.00;;;;4991963;28;20191;-43
2022/06/02 08:38:46;;;;;;;9.07;3.10;;;17.70;62.10;18.70;101340.00;;;;4991060;28;20185;-44
2022/06/02 08:41:28;;;;;;;5.43;2.93;;;17.60;62.00;18.70;101344.00;;;;4990888;28;20226;-44
2022/06/02 08:44:36;;;;;;;3.00;2.70;;;17.60;61.90;18.70;101338.00;;;;4990783;28;20959;-43
2022/06/02 08:47:34;;;;;;;5.53;3.30;;;17.70;61.80;18.70;101337.00;;;;4978897;28;20553;-45
2022/06/02 08:50:56;;;;;;;6.80;2.90;;;17.70;62.10;18.70;101321.00;;;;4991147;28;20573;-43
2022/06/02 08:53:28;;;;;;;5.13;2.80;;;17.60;61.90;18.70;101325.00;;;;4991300;28;20165;-44
2022/06/02 08:56:19;;;;;;;4.87;2.90;;;17.70;61.90;18.70;101338.00;;;;4992614;28;20263;-43
2022/06/02 08:59:43;;;;;;;5.23;2.80;;;17.70;61.80;18.70;101347.00;;;;4990400;28;20180;-43
2022/06/02 09:02:31;;;;;;;4.43;2.90;;;17.70;61.80;18.70;101357.00;;;;4991124;28;20282;-43
2022/06/02 09:05:37;;;;;;;4.93;2.83;;;17.60;61.80;18.70;101342.00;;;;4990735;28;20161;-44
2022/06/02 09:08:26;;;;;;;6.03;2.80;;;17.70;61.80;18.70;101340.00;;;;4977673;28;20173;-42
2022/06/02 09:11:15;;;;;;;4.13;2.87;;;17.70;61.80;18.70;101345.00;;;;4991233;28;20381;-43
2022/06/02 09:14:04;;;;;;;3.20;2.60;;;17.70;61.70;18.80;101345.00;;;;4974879;28;20721;-42
2022/06/02 09:16:56;;;;;;;2.90;2.70;;;17.70;61.50;18.80;101364.00;;;;4990528;28;20623;-42
2022/06/02 09:19:51;;;;;;;3.00;2.70;;;17.80;61.70;18.80;101372.00;;;;4980898;28;20192;-43
2022/06/02 09:22:50;;;;;;;3.47;2.70;;;17.70;61.50;18.80;101364.00;;;;4989381;28;20219;-44
2022/06/02 09:25:42;;;;;;;3.70;2.87;;;17.80;61.70;18.80;101351.00;;;;4977375;28;20164;-44
2022/06/02 09:28:38;;;;;;;2.70;2.50;;;17.80;61.50;18.80;101351.00;;;;4974069;28;20195;-44
2022/06/02 09:31:37;;;;;;;3.40;2.57;;;17.80;61.50;18.80;101357.00;;;;4991614;28;20237;-43
2022/06/02 09:34:25;;;;;;;2.80;2.60;;;17.80;61.50;18.80;101357.00;;;;4977552;28;20169;-44
2022/06/02 09:37:01;;;;;;;2.97;2.50;;;17.80;62.40;18.80;101348.00;;;;4997778;28;20172;-43
2022/06/02 09:39:59;;;;;;;2.83;2.63;;;17.90;61.50;18.90;101351.00;;;;4997092;28;20168;-43
2022/06/02 09:43:01;;;;;;;2.70;2.50;;;17.90;61.50;18.90;101359.00;;;;4991364;28;20415;-43
2022/06/02 09:46:16;;;;;;;3.53;2.60;;;17.90;61.70;18.90;101352.00;;;;4991299;28;20176;-42
2022/06/02 09:49:38;;;;;;;3.37;2.60;;;17.90;61.70;18.90;101341.00;;;;4990077;28;20258;-44
2022/06/02 09:52:53;;;;;;;2.97;2.67;;;17.90;61.70;18.90;101351.00;;;;4990836;28;20213;-43
2022/06/02 09:55:36;;;;;;;2.90;2.37;;;18.00;61.80;18.90;101342.00;;;;4990909;28;20257;-44
2022/06/02 09:58:35;;;;;;;4.73;2.90;;;18.00;61.90;18.90;101342.00;;;;4989594;28;20173;-44
2022/06/02 10:01:44;;;;;;;2.70;2.50;;;18.00;61.70;19.00;101342.00;;;;4973798;28;20213;-44
2022/06/02 10:04:34;;;;;;;2.37;2.20;;;18.00;61.90;19.00;101347.00;;;;4977096;28;20172;-44
2022/06/02 10:07:41;;;;;;;2.63;2.43;;;18.00;61.90;19.00;101352.00;;;;4974939;28;20166;-44
2022/06/02 10:10:47;;;;;;;3.17;2.50;;;18.10;62.10;19.00;101340.00;;;;4990803;28;20180;-43
2022/06/02 10:13:51;;;;;;;2.60;2.40;;;18.10;62.20;19.00;101336.00;;;;4989957;28;20224;-43
2022/06/02 10:17:04;;;;;;;2.60;2.40;;;18.20;62.30;19.10;101326.00;;;;4977586;28;20160;-43
2022/06/02 10:20:13;;;;;;;2.83;2.50;;;18.20;62.40;19.10;101332.00;;;;4978363;28;20183;-43
2022/06/02 10:23:00;;;;;;;2.33;2.20;;;18.20;62.30;19.10;101338.00;;;;4990398;28;20205;-44
2022/06/02 10:25:59;;;;;;;2.80;2.30;;;18.20;62.40;19.10;101324.00;;;;4990039;28;20231;-43
2022/06/02 10:29:01;;;;;;;2.40;2.20;;;18.20;62.70;19.10;101331.00;;;;4962848;28;20272;-45
2022/06/02 10:31:51;;;;;;;3.67;2.30;;;18.30;62.50;19.20;101334.00;;;;4988939;28;20212;-44
2022/06/02 10:34:44;;;;;;;2.87;2.30;;;18.30;62.40;19.20;101322.00;;;;4972875;28;20169;-43
2022/06/02 10:38:03;;;;;;;2.50;2.30;;;18.30;62.70;19.20;101328.00;;;;4970900;28;20250;-44
2022/06/02 10:41:16;;;;;;;2.63;2.43;;;18.40;62.60;19.30;101324.00;;;;4970610;28;20740;-43
2022/06/02 10:44:16;;;;;;;2.40;2.20;;;18.40;62.50;19.30;101315.00;;;;4961660;28;20250;-44
2022/06/02 10:47:24;;;;;;;2.57;2.37;;;18.40;62.70;19.30;101319.00;;;;4970358;28;20630;-44
2022/06/02 10:50:24;;;;;;;3.57;2.40;;;18.50;62.60;19.30;101311.00;;;;4969214;28;20256;-44
2022/06/02 10:53:29;;;;;;;3.00;2.30;;;18.50;62.50;19.40;101316.00;;;;4967933;28;20235;-42
2022/06/02 10:56:46;;;;;;;2.73;2.47;;;18.50;62.50;19.40;101309.00;;;;4969013;28;20534;-43
2022/06/02 10:59:53;;;;;;;2.70;2.40;;;18.60;62.50;19.50;101315.00;;;;4968515;28;20235;-43
2022/06/02 11:02:46;;;;;;;2.97;2.10;;;18.60;62.70;19.50;101313.00;;;;4957404;28;20216;-44
2022/06/02 11:05:59;;;;;;;2.40;2.20;;;18.60;62.60;19.50;101301.00;;;;4970027;28;20204;-43
2022/06/02 11:09:04;;;;;;;2.60;2.40;;;18.60;62.50;19.50;101294.00;;;;4969668;28;20773;-44
2022/06/02 11:11:54;;;;;;;2.33;2.17;;;18.70;62.60;19.60;101306.00;;;;4968576;28;20791;-44
2022/06/02 11:14:38;;;;;;;2.40;2.20;;;18.70;62.60;19.60;101306.00;;;;4977796;28;20211;-43
2022/06/02 11:17:21;;;;;;;2.60;2.40;;;18.70;63.00;19.60;101305.00;;;;4989377;28;20176;-45
2022/06/02 11:20:01;;;;;;;2.33;2.10;;;18.80;63.30;19.70;101297.00;;;;4988745;28;20182;-44
2022/06/02 11:23:23;;;;;;;3.50;2.17;;;18.80;63.70;19.70;101299.00;;;;4972734;28;20844;-43
2022/06/02 11:26:15;;;;;;;2.97;2.00;;;18.90;63.30;19.80;101291.00;;;;4965155;28;20552;-42
2022/06/02 11:28:55;;;;;;;2.30;2.10;;;18.90;63.40;19.80;101294.00;;;;4987632;28;20865;-43
2022/06/02 11:31:53;;;;;;;2.70;2.00;;;19.00;63.60;19.90;101287.00;;;;4989108;28;20204;-43
2022/06/02 11:34:53;;;;;;;3.27;2.33;;;19.10;64.00;19.90;101283.00;;;;4988269;28;20580;-44
2022/06/02 11:37:53;;;;;;;6.43;2.40;;;19.10;63.80;20.00;101292.00;;;;4989460;28;20836;-43
2022/06/02 11:41:12;;;;;;;4.20;2.30;;;19.20;63.40;20.00;101297.00;;;;5002259;28;20170;-44
2022/06/02 11:44:01;;;;;;;4.53;2.50;;;19.20;63.40;20.00;101283.00;;;;4988130;28;20246;-43
2022/06/02 11:47:04;;;;;;;4.50;2.20;;;19.20;63.20;20.10;101273.00;;;;4994318;28;20545;-45
2022/06/02 11:49:56;;;;;;;2.40;2.20;;;19.10;63.10;20.00;101257.00;;;;4995840;28;20163;-45
2022/06/02 11:52:30;;;;;;;2.77;2.33;;;19.20;63.60;20.10;101268.00;;;;4994546;28;20608;-44
2022/06/02 11:55:08;;;;;;;2.40;2.10;;;19.20;63.30;20.10;101249.00;;;;4995680;28;20649;-45
2022/06/02 11:58:17;;;;;;;2.23;2.03;;;19.30;63.40;20.20;101263.00;;;;4994334;28;20226;-44
2022/06/02 12:00:53;;;;;;;2.37;2.17;;;19.30;63.30;20.20;101242.00;;;;4994456;28;20592;-43
2022/06/02 12:03:50;;;;;;;2.50;2.30;;;19.40;63.40;20.30;101254.00;;;;4993544;28;20560;-43
2022/06/02 12:06:19;;;;;;;2.97;2.13;;;19.40;63.30;20.30;101248.00;;;;4994150;28;20183;-44
2022/06/02 12:09:03;;;;;;;2.40;2.10;;;19.40;63.40;20.40;101240.00;;;;4994116;28;20176;-43
2022/06/02 12:11:47;;;;;;;2.53;2.20;;;19.40;63.10;20.40;101245.00;;;;4993905;28;20235;-44
2022/06/02 12:14:50;;;;;;;3.83;2.30;;;19.50;63.80;20.40;101244.00;;;;4993977;28;20169;-45
2022/06/02 12:17:34;;;;;;;4.43;2.43;;;19.60;63.60;20.50;101240.00;;;;4993360;28;20199;-44
2022/06/02 12:20:53;;;;;;;4.27;2.20;;;19.60;63.60;20.50;101238.00;;;;4993941;28;20626;-44
2022/06/02 12:23:53;;;;;;;2.57;2.37;;;19.70;63.20;20.60;101232.00;;;;4975637;28;20165;-44
2022/06/02 12:27:07;;;;;;;2.30;2.10;;;19.70;62.70;20.60;101241.00;;;;4922834;28;20180;-45
2022/06/02 12:30:11;;;;;;;6.50;2.33;;;19.70;63.10;20.60;101241.00;;;;4981701;28;20179;-44
2022/06/02 12:33:14;;;;;;;2.53;2.20;;;19.70;62.90;20.70;101235.00;;;;4993947;28;20196;-45
2022/06/02 12:36:24;;;;;;;2.20;2.00;;;19.80;62.60;20.70;101226.00;;;;4978685;28;20192;-44
2022/06/02 12:39:32;;;;;;;2.27;2.07;;;19.80;62.30;20.80;101233.00;;;;4994731;28;20184;-44
2022/06/02 12:42:51;;;;;;;2.30;2.10;;;19.90;62.10;20.80;101221.00;;;;4993417;28;20227;-44
2022/06/02 12:45:39;;;;;;;4.37;2.27;;;19.90;61.80;20.90;101225.00;;;;4971023;28;20191;-44
2022/06/02 12:48:43;;;;;;;4.03;2.30;;;19.90;61.10;20.90;101235.00;;;;4966540;28;20766;-45
2022/06/02 12:51:55;;;;;;;5.50;2.60;;;20.00;61.20;20.90;101228.00;;;;4960849;28;20205;-44
2022/06/02 12:55:02;;;;;;;2.93;2.03;;;20.00;61.00;21.00;101212.00;;;;4974903;28;20184;-43